sensor_id;sensor_type;location;lat;lon;timestamp;temperature;humidity
3055;DHT22;1537;52.018;8.542;2023-02-22T00:02:49;8.80;99.90
3055;DHT22;1537;52.018;8.542;2023-02-22T00:06:17;8.80;99.90
3055;DHT22;1537;52.018;8.542;2023-02-22T00:09:41;8.90;99.90
3055;DHT22;1537;52.018;8.542;2023-02-22T00:13:07;9.00;99.90
3055;DHT22;1537;52.018;8.542;2023-02-22T00:16:32;9.00;99.90
3055;DHT22;1537;52.018;8.542;2023-02-22T00:19:56;8.90;99.90
3055;DHT22;1537;52.018;8.542;2023-02-22T00:23:22;9.00;99.90
3055;DHT22;1537;52.018;8.542;2023-02-22T00:26:46;9.00;99.90
3055;DHT22;1537;52.018;8.542;2023-02-22T00:30:15;9.10;99.90
3055;DHT22;1537;52.018;8.542;2023-02-22T00:33:44;9.10;99.90
3055;DHT22;1537;52.018;8.542;2023-02-22T00:37:08;9.00;99.90
3055;DHT22;1537;52.018;8.542;2023-02-22T00:40:34;9.00;99.90
3055;DHT22;1537;52.018;8.542;2023-02-22T00:43:58;9.00;99.90
3055;DHT22;1537;52.018;8.542;2023-02-22T00:47:22;9.10;99.90
3055;DHT22;1537;52.018;8.542;2023-02-22T00:50:49;9.00;99.90
3055;DHT22;1537;52.018;8.542;2023-02-22T00:54:16;9.00;99.90
3055;DHT22;1537;52.018;8.542;2023-02-22T00:57:41;9.00;99.90
3055;DHT22;1537;52.018;8.542;2023-02-22T01:01:05;9.00;99.90
3055;DHT22;1537;52.018;8.542;2023-02-22T01:04:33;8.90;99.90
3055;DHT22;1537;52.018;8.542;2023-02-22T01:08:01;8.80;99.90
3055;DHT22;1537;52.018;8.542;2023-02-22T01:11:28;8.70;99.90
3055;DHT22;1537;52.018;8.542;2023-02-22T01:14:52;8.70;99.90
3055;DHT22;1537;52.018;8.542;2023-02-22T01:18:18;8.60;99.90
3055;DHT22;1537;52.018;8.542;2023-02-22T01:21:43;8.50;99.90
3055;DHT22;1537;52.018;8.542;2023-02-22T01:25:25;8.40;99.90
3055;DHT22;1537;52.018;8.542;2023-02-22T01:28:49;8.30;99.90
3055;DHT22;1537;52.018;8.542;2023-02-22T01:32:13;8.30;99.90
3055;DHT22;1537;52.018;8.542;2023-02-22T01:35:38;8.20;99.90
3055;DHT22;1537;52.018;8.542;2023-02-22T01:39:02;8.20;99.90
3055;DHT22;1537;52.018;8.542;2023-02-22T01:42:28;8.10;99.90
3055;DHT22;1537;52.018;8.542;2023-02-22T01:45:58;8.00;99.90
3055;DHT22;1537;52.018;8.542;2023-02-22T01:49:23;8.00;99.90
3055;DHT22;1537;52.018;8.542;2023-02-22T01:52:49;8.00;99.90
3055;DHT22;1537;52.018;8.542;2023-02-22T01:56:13;7.90;99.90
3055;DHT22;1537;52.018;8.542;2023-02-22T01:59:42;7.90;99.90
3055;DHT22;1537;52.018;8.542;2023-02-22T02:03:10;7.80;99.90
3055;DHT22;1537;52.018;8.542;2023-02-22T02:06:38;7.70;99.90
3055;DHT22;1537;52.018;8.542;2023-02-22T02:10:06;7.70;99.90
3055;DHT22;1537;52.018;8.542;2023-02-22T02:13:33;7.70;99.90
3055;DHT22;1537;52.018;8.542;2023-02-22T02:17:01;7.70;99.90
3055;DHT22;1537;52.018;8.542;2023-02-22T02:20:28;7.60;99.90
3055;DHT22;1537;52.018;8.542;2023-02-22T02:24:28;7.60;99.90
3055;DHT22;1537;52.018;8.542;2023-02-22T02:28:13;7.50;99.90
3055;DHT22;1537;52.018;8.542;2023-02-22T02:32:12;7.50;99.90
3055;DHT22;1537;52.018;8.542;2023-02-22T02:35:49;7.40;99.90
3055;DHT22;1537;52.018;8.542;2023-02-22T02:39:23;7.40;99.90
3055;DHT22;1537;52.018;8.542;2023-02-22T02:42:56;7.40;99.90
3055;DHT22;1537;52.018;8.542;2023-02-22T02:46:29;7.30;99.90
3055;DHT22;1537;52.018;8.542;2023-02-22T02:50:02;7.20;99.90
3055;DHT22;1537;52.018;8.542;2023-02-22T02:53:32;7.10;99.90
3055;DHT22;1537;52.018;8.542;2023-02-22T02:56:57;7.10;99.90
3055;DHT22;1537;52.018;8.542;2023-02-22T03:00:25;7.10;99.90
3055;DHT22;1537;52.018;8.542;2023-02-22T03:04:04;7.10;99.90
3055;DHT22;1537;52.018;8.542;2023-02-22T03:07:42;7.10;99.90
3055;DHT22;1537;52.018;8.542;2023-02-22T03:11:12;7.10;99.90
3055;DHT22;1537;52.018;8.542;2023-02-22T03:14:41;7.00;99.90
3055;DHT22;1537;52.018;8.542;2023-02-22T03:18:17;7.00;99.90
3055;DHT22;1537;52.018;8.542;2023-02-22T03:21:49;6.80;99.90
3055;DHT22;1537;52.018;8.542;2023-02-22T03:25:23;6.90;99.90
3055;DHT22;1537;52.018;8.542;2023-02-22T03:28:54;6.90;99.90
3055;DHT22;1537;52.018;8.542;2023-02-22T03:32:21;6.90;99.90
3055;DHT22;1537;52.018;8.542;2023-02-22T03:35:50;6.80;99.90
3055;DHT22;1537;52.018;8.542;2023-02-22T03:39:19;6.70;99.90
3055;DHT22;1537;52.018;8.542;2023-02-22T03:42:47;6.70;99.90
3055;DHT22;1537;52.018;8.542;2023-02-22T03:46:16;6.60;99.90
3055;DHT22;1537;52.018;8.542;2023-02-22T03:49:44;6.60;99.90
3055;DHT22;1537;52.018;8.542;2023-02-22T03:53:10;6.60;99.90
3055;DHT22;1537;52.018;8.542;2023-02-22T03:56:41;6.50;99.90
3055;DHT22;1537;52.018;8.542;2023-02-22T04:00:15;6.50;99.90
3055;DHT22;1537;52.018;8.542;2023-02-22T04:03:41;6.50;99.90
3055;DHT22;1537;52.018;8.542;2023-02-22T04:07:04;6.50;99.90
3055;DHT22;1537;52.018;8.542;2023-02-22T04:10:28;6.50;99.90
3055;DHT22;1537;52.018;8.542;2023-02-22T04:13:54;6.50;99.90
3055;DHT22;1537;52.018;8.542;2023-02-22T04:17:21;6.50;99.90
3055;DHT22;1537;52.018;8.542;2023-02-22T04:20:46;6.50;99.90
3055;DHT22;1537;52.018;8.542;2023-02-22T04:24:19;6.60;99.90
3055;DHT22;1537;52.018;8.542;2023-02-22T04:27:44;6.60;99.90
3055;DHT22;1537;52.018;8.542;2023-02-22T04:31:09;6.60;99.90
3055;DHT22;1537;52.018;8.542;2023-02-22T04:34:34;6.50;99.90
3055;DHT22;1537;52.018;8.542;2023-02-22T04:37:58;6.50;99.90
3055;DHT22;1537;52.018;8.542;2023-02-22T04:41:22;6.50;99.90
3055;DHT22;1537;52.018;8.542;2023-02-22T04:44:48;6.40;99.90
3055;DHT22;1537;52.018;8.542;2023-02-22T04:48:12;6.40;99.90
3055;DHT22;1537;52.018;8.542;2023-02-22T04:51:37;6.40;99.90
3055;DHT22;1537;52.018;8.542;2023-02-22T04:55:03;6.30;99.90
3055;DHT22;1537;52.018;8.542;2023-02-22T04:58:32;6.20;99.90
3055;DHT22;1537;52.018;8.542;2023-02-22T05:01:56;6.10;99.90
3055;DHT22;1537;52.018;8.542;2023-02-22T05:05:20;6.10;99.90
3055;DHT22;1537;52.018;8.542;2023-02-22T05:08:46;6.00;99.90
3055;DHT22;1537;52.018;8.542;2023-02-22T05:12:10;6.00;99.90
3055;DHT22;1537;52.018;8.542;2023-02-22T05:15:34;6.00;99.90
3055;DHT22;1537;52.018;8.542;2023-02-22T05:18:58;6.00;99.90
3055;DHT22;1537;52.018;8.542;2023-02-22T05:22:22;6.10;99.90
3055;DHT22;1537;52.018;8.542;2023-02-22T05:25:49;6.00;99.90
3055;DHT22;1537;52.018;8.542;2023-02-22T05:29:15;6.00;99.90
3055;DHT22;1537;52.018;8.542;2023-02-22T05:32:40;6.00;99.90
3055;DHT22;1537;52.018;8.542;2023-02-22T05:36:04;5.90;99.90
3055;DHT22;1537;52.018;8.542;2023-02-22T05:39:30;5.90;99.90
3055;DHT22;1537;52.018;8.542;2023-02-22T05:42:56;5.80;99.90
3055;DHT22;1537;52.018;8.542;2023-02-22T05:46:21;5.80;99.90
3055;DHT22;1537;52.018;8.542;2023-02-22T05:49:45;5.70;99.90
3055;DHT22;1537;52.018;8.542;2023-02-22T05:53:09;5.70;99.90
3055;DHT22;1537;52.018;8.542;2023-02-22T05:56:34;5.60;99.90
3055;DHT22;1537;52.018;8.542;2023-02-22T06:00:09;5.60;99.90
3055;DHT22;1537;52.018;8.542;2023-02-22T06:03:36;5.60;99.90
3055;DHT22;1537;52.018;8.542;2023-02-22T06:07:00;5.60;99.90
3055;DHT22;1537;52.018;8.542;2023-02-22T06:10:26;5.60;99.90
3055;DHT22;1537;52.018;8.542;2023-02-22T06:13:50;5.50;99.90
3055;DHT22;1537;52.018;8.542;2023-02-22T06:17:15;5.50;99.90
3055;DHT22;1537;52.018;8.542;2023-02-22T06:20:47;5.50;99.90
3055;DHT22;1537;52.018;8.542;2023-02-22T06:24:17;5.60;99.90
3055;DHT22;1537;52.018;8.542;2023-02-22T06:27:41;5.50;99.90
3055;DHT22;1537;52.018;8.542;2023-02-22T06:31:05;5.60;99.90
3055;DHT22;1537;52.018;8.542;2023-02-22T06:34:30;5.60;99.90
3055;DHT22;1537;52.018;8.542;2023-02-22T06:37:53;5.70;99.90
3055;DHT22;1537;52.018;8.542;2023-02-22T06:41:17;5.70;99.90
3055;DHT22;1537;52.018;8.542;2023-02-22T06:44:41;5.70;99.90
3055;DHT22;1537;52.018;8.542;2023-02-22T06:48:04;5.80;99.90
3055;DHT22;1537;52.018;8.542;2023-02-22T06:51:34;5.90;99.90
3055;DHT22;1537;52.018;8.542;2023-02-22T06:54:58;6.00;99.90
3055;DHT22;1537;52.018;8.542;2023-02-22T06:58:21;6.10;99.90
3055;DHT22;1537;52.018;8.542;2023-02-22T07:01:45;6.20;99.90
3055;DHT22;1537;52.018;8.542;2023-02-22T07:05:09;6.40;99.90
3055;DHT22;1537;52.018;8.542;2023-02-22T07:08:35;6.60;99.90
3055;DHT22;1537;52.018;8.542;2023-02-22T07:11:59;6.70;99.90
3055;DHT22;1537;52.018;8.542;2023-02-22T07:15:24;6.90;99.90
3055;DHT22;1537;52.018;8.542;2023-02-22T07:18:49;6.90;99.90
3055;DHT22;1537;52.018;8.542;2023-02-22T07:22:12;7.10;99.90
3055;DHT22;1537;52.018;8.542;2023-02-22T07:25:38;7.30;99.90
3055;DHT22;1537;52.018;8.542;2023-02-22T07:29:01;7.50;99.90
3055;DHT22;1537;52.018;8.542;2023-02-22T07:32:25;7.60;99.90
3055;DHT22;1537;52.018;8.542;2023-02-22T07:35:49;7.80;99.90
3055;DHT22;1537;52.018;8.542;2023-02-22T07:39:13;8.00;99.90
3055;DHT22;1537;52.018;8.542;2023-02-22T07:42:51;8.20;99.90
3055;DHT22;1537;52.018;8.542;2023-02-22T07:46:15;8.80;99.90
3055;DHT22;1537;52.018;8.542;2023-02-22T07:49:38;9.60;99.90
3055;DHT22;1537;52.018;8.542;2023-02-22T07:53:03;9.90;99.90
3055;DHT22;1537;52.018;8.542;2023-02-22T07:56:27;10.20;99.90
3055;DHT22;1537;52.018;8.542;2023-02-22T07:59:53;10.60;99.90
3055;DHT22;1537;52.018;8.542;2023-02-22T08:03:18;10.60;99.40
3055;DHT22;1537;52.018;8.542;2023-02-22T08:06:42;10.80;99.90
3055;DHT22;1537;52.018;8.542;2023-02-22T08:10:08;10.90;99.90
3055;DHT22;1537;52.018;8.542;2023-02-22T08:13:32;11.10;99.20
3055;DHT22;1537;52.018;8.542;2023-02-22T08:16:59;11.00;97.50
3055;DHT22;1537;52.018;8.542;2023-02-22T08:20:23;11.20;98.60
3055;DHT22;1537;52.018;8.542;2023-02-22T08:23:50;11.70;97.80
3055;DHT22;1537;52.018;8.542;2023-02-22T08:27:15;12.30;96.30
3055;DHT22;1537;52.018;8.542;2023-02-22T08:30:39;12.80;94.80
3055;DHT22;1537;52.018;8.542;2023-02-22T08:34:05;13.50;93.30
3055;DHT22;1537;52.018;8.542;2023-02-22T08:37:33;13.50;93.10
3055;DHT22;1537;52.018;8.542;2023-02-22T08:41:00;14.20;92.10
3055;DHT22;1537;52.018;8.542;2023-02-22T08:44:24;14.50;88.60
3055;DHT22;1537;52.018;8.542;2023-02-22T08:47:48;14.90;87.90
3055;DHT22;1537;52.018;8.542;2023-02-22T08:51:13;15.40;87.80
3055;DHT22;1537;52.018;8.542;2023-02-22T08:54:37;15.50;85.70
3055;DHT22;1537;52.018;8.542;2023-02-22T08:58:03;15.90;85.30
3055;DHT22;1537;52.018;8.542;2023-02-22T09:01:27;16.30;83.40
3055;DHT22;1537;52.018;8.542;2023-02-22T09:04:58;16.70;81.00
3055;DHT22;1537;52.018;8.542;2023-02-22T09:08:22;17.00;81.70
3055;DHT22;1537;52.018;8.542;2023-02-22T09:11:47;16.80;81.20
3055;DHT22;1537;52.018;8.542;2023-02-22T09:15:14;16.60;81.70
3055;DHT22;1537;52.018;8.542;2023-02-22T09:18:37;16.40;84.40
3055;DHT22;1537;52.018;8.542;2023-02-22T09:22:06;16.60;85.80
3055;DHT22;1537;52.018;8.542;2023-02-22T09:25:31;16.50;84.00
3055;DHT22;1537;52.018;8.542;2023-02-22T09:28:55;17.10;82.40
3055;DHT22;1537;52.018;8.542;2023-02-22T09:32:19;17.50;79.40
3055;DHT22;1537;52.018;8.542;2023-02-22T09:35:43;16.50;77.00
3055;DHT22;1537;52.018;8.542;2023-02-22T09:39:08;14.60;84.60
3055;DHT22;1537;52.018;8.542;2023-02-22T09:42:38;13.80;88.50
3055;DHT22;1537;52.018;8.542;2023-02-22T09:46:15;13.60;90.30
3055;DHT22;1537;52.018;8.542;2023-02-22T09:49:43;13.10;91.50
3055;DHT22;1537;52.018;8.542;2023-02-22T09:53:19;13.20;91.60
3055;DHT22;1537;52.018;8.542;2023-02-22T09:56:55;13.40;91.50
3055;DHT22;1537;52.018;8.542;2023-02-22T10:00:22;13.70;91.30
3055;DHT22;1537;52.018;8.542;2023-02-22T10:03:55;13.90;90.50
3055;DHT22;1537;52.018;8.542;2023-02-22T10:07:27;13.90;90.30
3055;DHT22;1537;52.018;8.542;2023-02-22T10:10:58;14.20;90.00
3055;DHT22;1537;52.018;8.542;2023-02-22T10:18:39;14.20;89.00
3055;DHT22;1537;52.018;8.542;2023-02-22T10:26:00;14.60;89.00
3055;DHT22;1537;52.018;8.542;2023-02-22T10:29:29;14.90;87.20
3055;DHT22;1537;52.018;8.542;2023-02-22T10:32:58;15.00;84.90
3055;DHT22;1537;52.018;8.542;2023-02-22T10:36:28;14.90;86.60
3055;DHT22;1537;52.018;8.542;2023-02-22T10:39:57;15.00;85.20
3055;DHT22;1537;52.018;8.542;2023-02-22T10:43:21;15.00;85.00
3055;DHT22;1537;52.018;8.542;2023-02-22T10:46:47;14.80;85.10
3055;DHT22;1537;52.018;8.542;2023-02-22T10:50:12;14.70;85.50
3055;DHT22;1537;52.018;8.542;2023-02-22T10:53:38;14.80;85.20
3055;DHT22;1537;52.018;8.542;2023-02-22T10:57:02;14.60;84.70
3055;DHT22;1537;52.018;8.542;2023-02-22T11:00:29;14.60;84.00
3055;DHT22;1537;52.018;8.542;2023-02-22T11:04:04;14.70;84.60
3055;DHT22;1537;52.018;8.542;2023-02-22T11:07:31;14.90;83.50
3055;DHT22;1537;52.018;8.542;2023-02-22T11:10:59;14.70;84.00
3055;DHT22;1537;52.018;8.542;2023-02-22T11:14:28;15.00;84.50
3055;DHT22;1537;52.018;8.542;2023-02-22T11:17:54;15.40;79.30
3055;DHT22;1537;52.018;8.542;2023-02-22T11:21:21;15.40;79.80
3055;DHT22;1537;52.018;8.542;2023-02-22T11:24:46;15.80;78.40
3055;DHT22;1537;52.018;8.542;2023-02-22T11:28:20;15.80;76.70
3055;DHT22;1537;52.018;8.542;2023-02-22T11:31:54;15.80;75.40
3055;DHT22;1537;52.018;8.542;2023-02-22T11:35:34;15.50;78.70
3055;DHT22;1537;52.018;8.542;2023-02-22T11:38:58;15.40;76.80
3055;DHT22;1537;52.018;8.542;2023-02-22T11:42:23;15.80;76.90
3055;DHT22;1537;52.018;8.542;2023-02-22T11:45:58;15.70;74.30
3055;DHT22;1537;52.018;8.542;2023-02-22T11:49:31;15.40;72.30
3055;DHT22;1537;52.018;8.542;2023-02-22T11:53:11;15.20;74.50
3055;DHT22;1537;52.018;8.542;2023-02-22T11:56:41;15.30;74.40
3055;DHT22;1537;52.018;8.542;2023-02-22T12:00:14;15.40;71.30
3055;DHT22;1537;52.018;8.542;2023-02-22T12:04:07;15.30;73.10
3055;DHT22;1537;52.018;8.542;2023-02-22T12:07:48;15.20;73.40
3055;DHT22;1537;52.018;8.542;2023-02-22T12:11:18;15.10;72.20
3055;DHT22;1537;52.018;8.542;2023-02-22T12:14:53;14.60;72.30
3055;DHT22;1537;52.018;8.542;2023-02-22T12:18:25;14.60;74.30
3055;DHT22;1537;52.018;8.542;2023-02-22T12:21:56;14.40;73.60
3055;DHT22;1537;52.018;8.542;2023-02-22T12:25:25;14.50;73.90
3055;DHT22;1537;52.018;8.542;2023-02-22T12:28:56;14.60;72.80
3055;DHT22;1537;52.018;8.542;2023-02-22T12:32:28;14.70;72.40
3055;DHT22;1537;52.018;8.542;2023-02-22T12:35:57;14.80;67.50
3055;DHT22;1537;52.018;8.542;2023-02-22T12:39:36;14.90;67.80
3055;DHT22;1537;52.018;8.542;2023-02-22T12:43:17;14.90;67.00
3055;DHT22;1537;52.018;8.542;2023-02-22T12:46:47;15.10;68.70
3055;DHT22;1537;52.018;8.542;2023-02-22T12:50:19;15.00;66.20
3055;DHT22;1537;52.018;8.542;2023-02-22T12:53:52;14.90;67.40
3055;DHT22;1537;52.018;8.542;2023-02-22T12:57:23;14.90;67.20
3055;DHT22;1537;52.018;8.542;2023-02-22T13:00:53;15.00;66.30
3055;DHT22;1537;52.018;8.542;2023-02-22T13:04:21;14.90;68.10
3055;DHT22;1537;52.018;8.542;2023-02-22T13:07:50;14.90;68.80
3055;DHT22;1537;52.018;8.542;2023-02-22T13:11:21;14.80;67.30
3055;DHT22;1537;52.018;8.542;2023-02-22T13:14:57;14.80;67.00
3055;DHT22;1537;52.018;8.542;2023-02-22T13:18:27;14.60;64.20
3055;DHT22;1537;52.018;8.542;2023-02-22T13:21:57;14.80;62.70
3055;DHT22;1537;52.018;8.542;2023-02-22T13:25:29;14.90;62.80
3055;DHT22;1537;52.018;8.542;2023-02-22T13:28:57;15.00;64.50
3055;DHT22;1537;52.018;8.542;2023-02-22T13:32:37;15.00;66.80
3055;DHT22;1537;52.018;8.542;2023-02-22T13:36:29;15.10;64.40
3055;DHT22;1537;52.018;8.542;2023-02-22T13:40:23;15.00;61.20
3055;DHT22;1537;52.018;8.542;2023-02-22T13:44:14;15.10;63.50
3055;DHT22;1537;52.018;8.542;2023-02-22T13:48:06;15.10;68.50
3055;DHT22;1537;52.018;8.542;2023-02-22T13:51:47;15.20;71.50
3055;DHT22;1537;52.018;8.542;2023-02-22T13:55:17;15.10;70.70
3055;DHT22;1537;52.018;8.542;2023-02-22T13:58:49;14.80;72.60
3055;DHT22;1537;52.018;8.542;2023-02-22T14:02:32;14.90;74.40
3055;DHT22;1537;52.018;8.542;2023-02-22T14:05:59;14.80;73.70
3055;DHT22;1537;52.018;8.542;2023-02-22T14:09:42;14.70;75.90
3055;DHT22;1537;52.018;8.542;2023-02-22T14:13:07;14.80;77.70
3055;DHT22;1537;52.018;8.542;2023-02-22T14:16:33;14.80;78.20
3055;DHT22;1537;52.018;8.542;2023-02-22T14:23:44;14.40;79.70
3055;DHT22;1537;52.018;8.542;2023-02-22T14:27:08;14.40;79.10
3055;DHT22;1537;52.018;8.542;2023-02-22T14:30:47;14.40;79.30
3055;DHT22;1537;52.018;8.542;2023-02-22T14:34:11;14.40;80.40
3055;DHT22;1537;52.018;8.542;2023-02-22T14:37:38;14.40;80.70
3055;DHT22;1537;52.018;8.542;2023-02-22T14:41:05;14.50;81.30
3055;DHT22;1537;52.018;8.542;2023-02-22T14:44:35;14.50;82.30
3055;DHT22;1537;52.018;8.542;2023-02-22T14:48:03;14.40;83.00
3055;DHT22;1537;52.018;8.542;2023-02-22T14:51:39;14.30;84.30
3055;DHT22;1537;52.018;8.542;2023-02-22T14:55:13;14.40;85.00
3055;DHT22;1537;52.018;8.542;2023-02-22T14:58:42;14.50;85.30
3055;DHT22;1537;52.018;8.542;2023-02-22T15:02:11;14.30;86.10
3055;DHT22;1537;52.018;8.542;2023-02-22T15:05:39;14.10;86.60
3055;DHT22;1537;52.018;8.542;2023-02-22T15:09:06;14.00;87.20
3055;DHT22;1537;52.018;8.542;2023-02-22T15:12:30;14.00;88.70
3055;DHT22;1537;52.018;8.542;2023-02-22T15:15:57;14.00;88.20
3055;DHT22;1537;52.018;8.542;2023-02-22T15:19:25;14.00;88.60
3055;DHT22;1537;52.018;8.542;2023-02-22T15:22:50;14.10;88.70
3055;DHT22;1537;52.018;8.542;2023-02-22T15:26:24;14.20;88.90
3055;DHT22;1537;52.018;8.542;2023-02-22T15:29:56;14.20;87.80
3055;DHT22;1537;52.018;8.542;2023-02-22T15:33:28;14.00;88.30
3055;DHT22;1537;52.018;8.542;2023-02-22T15:37:17;14.10;88.40
3055;DHT22;1537;52.018;8.542;2023-02-22T15:40:43;14.10;87.80
3055;DHT22;1537;52.018;8.542;2023-02-22T15:44:11;14.10;87.80
3055;DHT22;1537;52.018;8.542;2023-02-22T15:47:45;14.00;88.30
3055;DHT22;1537;52.018;8.542;2023-02-22T15:51:12;13.90;88.40
3055;DHT22;1537;52.018;8.542;2023-02-22T15:54:43;13.90;88.60
3055;DHT22;1537;52.018;8.542;2023-02-22T15:58:10;13.80;89.20
3055;DHT22;1537;52.018;8.542;2023-02-22T16:01:37;13.70;89.10
3055;DHT22;1537;52.018;8.542;2023-02-22T16:05:07;13.80;89.60
3055;DHT22;1537;52.018;8.542;2023-02-22T16:08:38;13.80;89.50
3055;DHT22;1537;52.018;8.542;2023-02-22T16:12:25;13.80;89.50
3055;DHT22;1537;52.018;8.542;2023-02-22T16:15:55;13.70;90.10
3055;DHT22;1537;52.018;8.542;2023-02-22T16:19:33;13.70;90.20
3055;DHT22;1537;52.018;8.542;2023-02-22T16:22:58;13.60;90.40
3055;DHT22;1537;52.018;8.542;2023-02-22T16:26:27;13.50;90.70
3055;DHT22;1537;52.018;8.542;2023-02-22T16:30:07;13.50;90.90
3055;DHT22;1537;52.018;8.542;2023-02-22T16:33:45;13.30;91.10
3055;DHT22;1537;52.018;8.542;2023-02-22T16:37:19;13.30;91.30
3055;DHT22;1537;52.018;8.542;2023-02-22T16:40:46;13.30;91.40
3055;DHT22;1537;52.018;8.542;2023-02-22T16:44:13;13.20;91.30
3055;DHT22;1537;52.018;8.542;2023-02-22T16:47:38;13.20;91.40
3055;DHT22;1537;52.018;8.542;2023-02-22T16:51:08;13.10;91.60
3055;DHT22;1537;52.018;8.542;2023-02-22T16:54:41;13.00;91.80
3055;DHT22;1537;52.018;8.542;2023-02-22T16:58:06;12.90;92.20
3055;DHT22;1537;52.018;8.542;2023-02-22T17:01:33;12.80;92.50
3055;DHT22;1537;52.018;8.542;2023-02-22T17:04:57;12.70;92.90
3055;DHT22;1537;52.018;8.542;2023-02-22T17:08:20;12.70;92.60
3055;DHT22;1537;52.018;8.542;2023-02-22T17:11:47;12.60;92.90
3055;DHT22;1537;52.018;8.542;2023-02-22T17:15:17;12.50;93.10
3055;DHT22;1537;52.018;8.542;2023-02-22T17:18:44;12.40;93.30
3055;DHT22;1537;52.018;8.542;2023-02-22T17:22:15;12.40;93.50
3055;DHT22;1537;52.018;8.542;2023-02-22T17:25:40;12.40;93.50
3055;DHT22;1537;52.018;8.542;2023-02-22T17:29:04;12.30;93.70
3055;DHT22;1537;52.018;8.542;2023-02-22T17:32:28;12.30;93.80
3055;DHT22;1537;52.018;8.542;2023-02-22T17:35:54;12.20;93.70
3055;DHT22;1537;52.018;8.542;2023-02-22T17:39:19;12.10;93.60
3055;DHT22;1537;52.018;8.542;2023-02-22T17:42:43;12.10;94.00
3055;DHT22;1537;52.018;8.542;2023-02-22T17:46:07;12.00;94.20
3055;DHT22;1537;52.018;8.542;2023-02-22T17:49:30;12.00;94.40
3055;DHT22;1537;52.018;8.542;2023-02-22T17:52:56;12.00;94.60
3055;DHT22;1537;52.018;8.542;2023-02-22T17:56:21;12.00;94.80
3055;DHT22;1537;52.018;8.542;2023-02-22T17:59:45;11.80;94.90
3055;DHT22;1537;52.018;8.542;2023-02-22T18:03:10;11.70;94.40
3055;DHT22;1537;52.018;8.542;2023-02-22T18:06:34;11.70;95.10
3055;DHT22;1537;52.018;8.542;2023-02-22T18:10:00;11.60;95.20
3055;DHT22;1537;52.018;8.542;2023-02-22T18:13:26;11.60;95.20
3055;DHT22;1537;52.018;8.542;2023-02-22T18:16:50;11.60;95.20
3055;DHT22;1537;52.018;8.542;2023-02-22T18:20:15;11.50;95.40
3055;DHT22;1537;52.018;8.542;2023-02-22T18:23:41;11.60;95.50
3055;DHT22;1537;52.018;8.542;2023-02-22T18:27:07;11.60;95.50
3055;DHT22;1537;52.018;8.542;2023-02-22T18:30:33;11.60;95.30
3055;DHT22;1537;52.018;8.542;2023-02-22T18:33:57;11.60;95.40
3055;DHT22;1537;52.018;8.542;2023-02-22T18:37:21;11.50;95.00
3055;DHT22;1537;52.018;8.542;2023-02-22T18:40:44;11.50;95.10
3055;DHT22;1537;52.018;8.542;2023-02-22T18:44:10;11.50;95.20
3055;DHT22;1537;52.018;8.542;2023-02-22T18:47:38;11.40;95.30
3055;DHT22;1537;52.018;8.542;2023-02-22T18:51:05;11.40;95.30
3055;DHT22;1537;52.018;8.542;2023-02-22T18:54:30;11.40;95.50
3055;DHT22;1537;52.018;8.542;2023-02-22T18:57:54;11.40;95.50
3055;DHT22;1537;52.018;8.542;2023-02-22T19:01:19;11.40;95.70
3055;DHT22;1537;52.018;8.542;2023-02-22T19:04:43;11.40;95.50
3055;DHT22;1537;52.018;8.542;2023-02-22T19:08:06;11.30;95.80
3055;DHT22;1537;52.018;8.542;2023-02-22T19:11:32;11.40;95.70
3055;DHT22;1537;52.018;8.542;2023-02-22T19:14:57;11.40;95.70
3055;DHT22;1537;52.018;8.542;2023-02-22T19:18:22;11.40;95.70
3055;DHT22;1537;52.018;8.542;2023-02-22T19:21:46;11.40;95.70
3055;DHT22;1537;52.018;8.542;2023-02-22T19:25:10;11.40;95.80
3055;DHT22;1537;52.018;8.542;2023-02-22T19:28:34;11.40;95.80
3055;DHT22;1537;52.018;8.542;2023-02-22T19:31:57;11.40;95.70
3055;DHT22;1537;52.018;8.542;2023-02-22T19:35:23;11.20;95.70
3055;DHT22;1537;52.018;8.542;2023-02-22T19:38:49;11.20;95.60
3055;DHT22;1537;52.018;8.542;2023-02-22T19:42:13;11.10;95.30
3055;DHT22;1537;52.018;8.542;2023-02-22T19:45:38;11.10;95.30
3055;DHT22;1537;52.018;8.542;2023-02-22T19:49:02;11.10;95.40
3055;DHT22;1537;52.018;8.542;2023-02-22T19:52:27;10.90;95.80
3055;DHT22;1537;52.018;8.542;2023-02-22T19:55:51;10.80;95.50
3055;DHT22;1537;52.018;8.542;2023-02-22T19:59:17;10.90;95.50
3055;DHT22;1537;52.018;8.542;2023-02-22T20:02:45;10.90;95.50
3055;DHT22;1537;52.018;8.542;2023-02-22T20:06:09;10.90;95.30
3055;DHT22;1537;52.018;8.542;2023-02-22T20:09:39;10.90;95.00
3055;DHT22;1537;52.018;8.542;2023-02-22T20:13:05;10.90;94.70
3055;DHT22;1537;52.018;8.542;2023-02-22T20:16:29;10.80;94.70
3055;DHT22;1537;52.018;8.542;2023-02-22T20:19:52;10.80;94.70
3055;DHT22;1537;52.018;8.542;2023-02-22T20:23:16;10.70;94.80
3055;DHT22;1537;52.018;8.542;2023-02-22T20:26:41;10.60;94.90
3055;DHT22;1537;52.018;8.542;2023-02-22T20:30:05;10.60;94.80
3055;DHT22;1537;52.018;8.542;2023-02-22T20:33:31;10.60;94.80
3055;DHT22;1537;52.018;8.542;2023-02-22T20:36:56;10.60;94.80
3055;DHT22;1537;52.018;8.542;2023-02-22T20:40:20;10.60;94.70
3055;DHT22;1537;52.018;8.542;2023-02-22T20:43:48;10.50;94.80
3055;DHT22;1537;52.018;8.542;2023-02-22T20:47:12;10.50;94.80
3055;DHT22;1537;52.018;8.542;2023-02-22T20:50:35;10.50;94.80
3055;DHT22;1537;52.018;8.542;2023-02-22T20:53:59;10.40;94.80
3055;DHT22;1537;52.018;8.542;2023-02-22T20:57:23;10.40;95.10
3055;DHT22;1537;52.018;8.542;2023-02-22T21:00:48;10.30;95.20
3055;DHT22;1537;52.018;8.542;2023-02-22T21:04:13;10.30;95.30
3055;DHT22;1537;52.018;8.542;2023-02-22T21:07:36;10.30;95.30
3055;DHT22;1537;52.018;8.542;2023-02-22T21:11:00;10.30;95.40
3055;DHT22;1537;52.018;8.542;2023-02-22T21:14:24;10.30;95.40
3055;DHT22;1537;52.018;8.542;2023-02-22T21:17:48;10.20;95.50
3055;DHT22;1537;52.018;8.542;2023-02-22T21:21:12;10.10;95.70
3055;DHT22;1537;52.018;8.542;2023-02-22T21:24:36;10.00;95.70
3055;DHT22;1537;52.018;8.542;2023-02-22T21:27:59;10.00;95.80
3055;DHT22;1537;52.018;8.542;2023-02-22T21:31:24;10.00;95.90
3055;DHT22;1537;52.018;8.542;2023-02-22T21:34:49;10.00;95.80
3055;DHT22;1537;52.018;8.542;2023-02-22T21:38:12;9.90;96.40
3055;DHT22;1537;52.018;8.542;2023-02-22T21:41:36;9.90;96.50
3055;DHT22;1537;52.018;8.542;2023-02-22T21:45:03;9.80;96.50
3055;DHT22;1537;52.018;8.542;2023-02-22T21:48:26;9.80;96.70
3055;DHT22;1537;52.018;8.542;2023-02-22T21:51:51;9.80;96.70
3055;DHT22;1537;52.018;8.542;2023-02-22T21:55:15;9.70;96.80
3055;DHT22;1537;52.018;8.542;2023-02-22T21:58:40;9.70;96.80
3055;DHT22;1537;52.018;8.542;2023-02-22T22:02:06;9.70;97.00
3055;DHT22;1537;52.018;8.542;2023-02-22T22:05:29;9.70;96.90
3055;DHT22;1537;52.018;8.542;2023-02-22T22:14:04;9.60;97.00
3055;DHT22;1537;52.018;8.542;2023-02-22T22:17:28;9.60;97.00
3055;DHT22;1537;52.018;8.542;2023-02-22T22:20:51;9.60;97.10
3055;DHT22;1537;52.018;8.542;2023-02-22T22:24:15;9.60;97.10
3055;DHT22;1537;52.018;8.542;2023-02-22T22:27:42;9.60;97.10
3055;DHT22;1537;52.018;8.542;2023-02-22T22:31:08;9.60;97.20
3055;DHT22;1537;52.018;8.542;2023-02-22T22:34:33;9.60;97.20
3055;DHT22;1537;52.018;8.542;2023-02-22T22:37:59;9.50;97.20
3055;DHT22;1537;52.018;8.542;2023-02-22T22:41:23;9.40;97.50
3055;DHT22;1537;52.018;8.542;2023-02-22T22:44:49;9.40;97.50
3055;DHT22;1537;52.018;8.542;2023-02-22T22:48:14;9.40;97.80
3055;DHT22;1537;52.018;8.542;2023-02-22T22:51:38;9.30;97.90
3055;DHT22;1537;52.018;8.542;2023-02-22T22:55:03;9.30;97.90
3055;DHT22;1537;52.018;8.542;2023-02-22T22:58:31;9.30;98.10
3055;DHT22;1537;52.018;8.542;2023-02-22T23:01:55;9.20;98.20